Hinton, United Kingdom
Current Conditions -  °F | °C
As of 8:20 AM on Tuesday 21 Oct 2014 (Local Time) from EGGD Reporting Station
Few Clouds Few Clouds  
Wind Chill: 50°   Ceiling: Unl
Heat Index: 50°   Visibility: 6mi
Dew Point: 43°   Wind: 26mph
Humidity: 76%   Direction: 280°W
Pressure: 29.65"   Gusts: 43mph
Location:  51.49°N, 2.38°W
Report Text: EGGD 210720Z 28023G37KT 9999 FEW015 10/06 Q1004
Loading
Personal Weather Stations






























Interactive Weather Map
Tropical Storm Tracking
New forecast layout! Learn more

10-Day Weather Forecast

Advertisements
Track Severe Weather on mobile